sensor_id;sensor_type;location;lat;lon;timestamp;P1;durP1;ratioP1;P2;durP2;ratioP2
16800;SDS011;8518;53.236;10.384;2022-09-29T00:00:36;9.57;;;6.73;;
16800;SDS011;8518;53.236;10.384;2022-09-29T00:03:02;8.23;;;6.40;;
16800;SDS011;8518;53.236;10.384;2022-09-29T00:05:28;8.50;;;6.30;;
16800;SDS011;8518;53.236;10.384;2022-09-29T00:07:54;7.37;;;6.30;;
16800;SDS011;8518;53.236;10.384;2022-09-29T00:10:20;9.00;;;7.40;;
16800;SDS011;8518;53.236;10.384;2022-09-29T00:12:46;7.87;;;7.00;;
16800;SDS011;8518;53.236;10.384;2022-09-29T00:15:11;8.17;;;7.10;;
16800;SDS011;8518;53.236;10.384;2022-09-29T00:17:38;8.03;;;6.73;;
16800;SDS011;8518;53.236;10.384;2022-09-29T00:20:04;8.40;;;7.07;;
16800;SDS011;8518;53.236;10.384;2022-09-29T00:22:30;9.30;;;7.10;;
16800;SDS011;8518;53.236;10.384;2022-09-29T00:24:56;8.77;;;7.70;;
16800;SDS011;8518;53.236;10.384;2022-09-29T00:27:21;12.10;;;7.67;;
16800;SDS011;8518;53.236;10.384;2022-09-29T00:29:47;8.97;;;7.60;;
16800;SDS011;8518;53.236;10.384;2022-09-29T00:32:13;9.37;;;7.73;;
16800;SDS011;8518;53.236;10.384;2022-09-29T00:34:39;8.03;;;7.23;;
16800;SDS011;8518;53.236;10.384;2022-09-29T00:37:04;8.17;;;7.27;;
16800;SDS011;8518;53.236;10.384;2022-09-29T00:39:30;10.20;;;8.00;;
16800;SDS011;8518;53.236;10.384;2022-09-29T00:41:56;8.97;;;7.90;;
16800;SDS011;8518;53.236;10.384;2022-09-29T00:49:37;12.27;;;8.20;;
16800;SDS011;8518;53.236;10.384;2022-09-29T00:52:06;12.33;;;8.93;;
16800;SDS011;8518;53.236;10.384;2022-09-29T00:54:38;12.60;;;9.67;;
16800;SDS011;8518;53.236;10.384;2022-09-29T00:57:08;11.40;;;8.63;;
16800;SDS011;8518;53.236;10.384;2022-09-29T00:59:39;12.60;;;9.17;;
16800;SDS011;8518;53.236;10.384;2022-09-29T01:02:16;10.50;;;8.63;;
16800;SDS011;8518;53.236;10.384;2022-09-29T01:04:44;11.33;;;9.23;;
16800;SDS011;8518;53.236;10.384;2022-09-29T01:07:12;11.03;;;8.93;;
16800;SDS011;8518;53.236;10.384;2022-09-29T01:09:39;10.70;;;8.90;;
16800;SDS011;8518;53.236;10.384;2022-09-29T01:12:07;10.40;;;8.70;;
16800;SDS011;8518;53.236;10.384;2022-09-29T01:14:33;12.33;;;8.90;;
16800;SDS011;8518;53.236;10.384;2022-09-29T01:17:01;11.73;;;8.70;;
16800;SDS011;8518;53.236;10.384;2022-09-29T01:25:05;10.37;;;7.23;;
16800;SDS011;8518;53.236;10.384;2022-09-29T01:30:55;9.70;;;7.87;;
16800;SDS011;8518;53.236;10.384;2022-09-29T01:33:35;11.37;;;8.13;;
16800;SDS011;8518;53.236;10.384;2022-09-29T01:49:49;10.57;;;8.73;;
16800;SDS011;8518;53.236;10.384;2022-09-29T01:52:22;9.07;;;7.90;;
16800;SDS011;8518;53.236;10.384;2022-09-29T01:57:33;12.90;;;8.73;;
16800;SDS011;8518;53.236;10.384;2022-09-29T02:00:04;8.83;;;7.80;;
16800;SDS011;8518;53.236;10.384;2022-09-29T02:03:17;10.17;;;8.07;;
16800;SDS011;8518;53.236;10.384;2022-09-29T02:05:32;9.77;;;7.97;;
16800;SDS011;8518;53.236;10.384;2022-09-29T02:08:37;8.90;;;7.93;;
16800;SDS011;8518;53.236;10.384;2022-09-29T02:11:05;9.53;;;8.00;;
16800;SDS011;8518;53.236;10.384;2022-09-29T02:16:23;11.13;;;8.40;;
16800;SDS011;8518;53.236;10.384;2022-09-29T02:21:20;9.93;;;8.33;;
16800;SDS011;8518;53.236;10.384;2022-09-29T02:23:47;10.07;;;8.17;;
16800;SDS011;8518;53.236;10.384;2022-09-29T02:26:14;11.47;;;8.10;;
16800;SDS011;8518;53.236;10.384;2022-09-29T02:28:40;9.50;;;7.93;;
16800;SDS011;8518;53.236;10.384;2022-09-29T02:31:06;8.77;;;7.87;;
16800;SDS011;8518;53.236;10.384;2022-09-29T02:33:32;11.93;;;8.10;;
16800;SDS011;8518;53.236;10.384;2022-09-29T02:36:03;10.10;;;8.27;;
16800;SDS011;8518;53.236;10.384;2022-09-29T02:38:46;8.60;;;7.33;;
16800;SDS011;8518;53.236;10.384;2022-09-29T02:43:57;8.37;;;6.90;;
16800;SDS011;8518;53.236;10.384;2022-09-29T02:52:15;8.03;;;6.80;;
16800;SDS011;8518;53.236;10.384;2022-09-29T02:55:03;7.77;;;6.97;;
16800;SDS011;8518;53.236;10.384;2022-09-29T02:57:46;10.17;;;7.60;;
16800;SDS011;8518;53.236;10.384;2022-09-29T03:00:17;7.67;;;6.60;;
16800;SDS011;8518;53.236;10.384;2022-09-29T03:02:44;8.23;;;6.97;;
16800;SDS011;8518;53.236;10.384;2022-09-29T03:05:14;8.03;;;7.23;;
16800;SDS011;8518;53.236;10.384;2022-09-29T03:07:41;10.00;;;6.53;;
16800;SDS011;8518;53.236;10.384;2022-09-29T03:10:08;8.10;;;7.20;;
16800;SDS011;8518;53.236;10.384;2022-09-29T03:12:34;9.63;;;7.00;;
16800;SDS011;8518;53.236;10.384;2022-09-29T03:15:00;7.60;;;6.80;;
16800;SDS011;8518;53.236;10.384;2022-09-29T03:17:26;9.50;;;7.53;;
16800;SDS011;8518;53.236;10.384;2022-09-29T03:19:52;8.17;;;6.83;;
16800;SDS011;8518;53.236;10.384;2022-09-29T03:22:17;7.87;;;7.07;;
16800;SDS011;8518;53.236;10.384;2022-09-29T03:24:43;8.10;;;7.30;;
16800;SDS011;8518;53.236;10.384;2022-09-29T03:27:09;7.93;;;6.87;;
16800;SDS011;8518;53.236;10.384;2022-09-29T03:29:35;7.67;;;6.87;;
16800;SDS011;8518;53.236;10.384;2022-09-29T03:32:02;7.17;;;6.47;;
16800;SDS011;8518;53.236;10.384;2022-09-29T03:34:28;8.03;;;6.67;;
16800;SDS011;8518;53.236;10.384;2022-09-29T03:36:54;9.60;;;7.57;;
16800;SDS011;8518;53.236;10.384;2022-09-29T03:39:20;9.07;;;7.23;;
16800;SDS011;8518;53.236;10.384;2022-09-29T03:41:46;8.80;;;7.23;;
16800;SDS011;8518;53.236;10.384;2022-09-29T03:44:12;10.83;;;7.80;;
16800;SDS011;8518;53.236;10.384;2022-09-29T03:46:37;9.60;;;7.50;;
16800;SDS011;8518;53.236;10.384;2022-09-29T03:49:03;8.87;;;7.50;;
16800;SDS011;8518;53.236;10.384;2022-09-29T03:51:28;8.37;;;7.33;;
16800;SDS011;8518;53.236;10.384;2022-09-29T03:53:54;9.60;;;7.33;;
16800;SDS011;8518;53.236;10.384;2022-09-29T03:56:20;9.87;;;7.30;;
16800;SDS011;8518;53.236;10.384;2022-09-29T03:58:45;10.87;;;7.73;;
16800;SDS011;8518;53.236;10.384;2022-09-29T04:01:11;9.30;;;7.97;;
16800;SDS011;8518;53.236;10.384;2022-09-29T04:03:36;10.33;;;7.97;;
16800;SDS011;8518;53.236;10.384;2022-09-29T04:06:02;7.97;;;7.13;;
16800;SDS011;8518;53.236;10.384;2022-09-29T04:08:28;12.03;;;8.27;;
16800;SDS011;8518;53.236;10.384;2022-09-29T04:10:53;12.97;;;7.93;;
16800;SDS011;8518;53.236;10.384;2022-09-29T04:13:19;9.43;;;7.50;;
16800;SDS011;8518;53.236;10.384;2022-09-29T04:15:46;11.00;;;8.33;;
16800;SDS011;8518;53.236;10.384;2022-09-29T04:18:12;10.67;;;7.97;;
16800;SDS011;8518;53.236;10.384;2022-09-29T04:20:38;8.90;;;7.70;;
16800;SDS011;8518;53.236;10.384;2022-09-29T04:23:04;11.33;;;8.37;;
16800;SDS011;8518;53.236;10.384;2022-09-29T04:25:30;9.27;;;8.10;;
16800;SDS011;8518;53.236;10.384;2022-09-29T04:27:56;10.03;;;8.07;;
16800;SDS011;8518;53.236;10.384;2022-09-29T04:30:22;10.63;;;7.80;;
16800;SDS011;8518;53.236;10.384;2022-09-29T04:32:48;10.80;;;8.37;;
16800;SDS011;8518;53.236;10.384;2022-09-29T04:35:13;9.70;;;8.07;;
16800;SDS011;8518;53.236;10.384;2022-09-29T04:37:39;9.50;;;8.13;;
16800;SDS011;8518;53.236;10.384;2022-09-29T04:40:05;9.77;;;8.30;;
16800;SDS011;8518;53.236;10.384;2022-09-29T04:42:31;11.13;;;8.43;;
16800;SDS011;8518;53.236;10.384;2022-09-29T04:44:57;12.00;;;8.37;;
16800;SDS011;8518;53.236;10.384;2022-09-29T04:47:23;9.80;;;8.00;;
16800;SDS011;8518;53.236;10.384;2022-09-29T04:49:48;11.37;;;8.20;;
16800;SDS011;8518;53.236;10.384;2022-09-29T04:52:14;10.60;;;8.00;;
16800;SDS011;8518;53.236;10.384;2022-09-29T04:54:40;10.67;;;8.87;;
16800;SDS011;8518;53.236;10.384;2022-09-29T04:57:05;9.70;;;8.23;;
16800;SDS011;8518;53.236;10.384;2022-09-29T04:59:31;11.00;;;8.80;;
16800;SDS011;8518;53.236;10.384;2022-09-29T05:01:57;10.37;;;8.93;;
16800;SDS011;8518;53.236;10.384;2022-09-29T05:04:23;11.23;;;8.80;;
16800;SDS011;8518;53.236;10.384;2022-09-29T05:06:48;11.13;;;9.37;;
16800;SDS011;8518;53.236;10.384;2022-09-29T05:09:14;12.83;;;9.90;;
16800;SDS011;8518;53.236;10.384;2022-09-29T05:11:40;10.40;;;8.70;;
16800;SDS011;8518;53.236;10.384;2022-09-29T05:14:05;10.97;;;9.23;;
16800;SDS011;8518;53.236;10.384;2022-09-29T05:16:31;14.07;;;9.83;;
16800;SDS011;8518;53.236;10.384;2022-09-29T05:18:57;11.43;;;9.30;;
16800;SDS011;8518;53.236;10.384;2022-09-29T05:21:22;12.67;;;10.30;;
16800;SDS011;8518;53.236;10.384;2022-09-29T05:23:48;12.33;;;9.97;;
16800;SDS011;8518;53.236;10.384;2022-09-29T05:26:14;11.80;;;10.47;;
16800;SDS011;8518;53.236;10.384;2022-09-29T05:28:44;15.50;;;11.10;;
16800;SDS011;8518;53.236;10.384;2022-09-29T05:31:11;14.80;;;11.50;;
16800;SDS011;8518;53.236;10.384;2022-09-29T05:33:38;13.93;;;11.67;;
16800;SDS011;8518;53.236;10.384;2022-09-29T05:36:04;16.97;;;11.27;;
16800;SDS011;8518;53.236;10.384;2022-09-29T05:38:32;15.57;;;11.67;;
16800;SDS011;8518;53.236;10.384;2022-09-29T05:41:02;13.80;;;11.33;;
16800;SDS011;8518;53.236;10.384;2022-09-29T05:43:29;15.17;;;11.33;;
16800;SDS011;8518;53.236;10.384;2022-09-29T05:46:00;16.33;;;12.33;;
16800;SDS011;8518;53.236;10.384;2022-09-29T05:48:27;15.70;;;11.83;;
16800;SDS011;8518;53.236;10.384;2022-09-29T05:50:57;15.67;;;12.20;;
16800;SDS011;8518;53.236;10.384;2022-09-29T05:53:24;15.20;;;12.60;;
16800;SDS011;8518;53.236;10.384;2022-09-29T05:55:49;15.50;;;11.93;;
16800;SDS011;8518;53.236;10.384;2022-09-29T05:58:15;17.13;;;12.83;;
16800;SDS011;8518;53.236;10.384;2022-09-29T06:00:41;15.90;;;12.03;;
16800;SDS011;8518;53.236;10.384;2022-09-29T06:03:07;16.63;;;11.97;;
16800;SDS011;8518;53.236;10.384;2022-09-29T06:05:32;16.30;;;11.67;;
16800;SDS011;8518;53.236;10.384;2022-09-29T06:08:03;14.83;;;11.30;;
16800;SDS011;8518;53.236;10.384;2022-09-29T06:10:29;16.37;;;12.20;;
16800;SDS011;8518;53.236;10.384;2022-09-29T06:12:55;14.03;;;12.03;;
16800;SDS011;8518;53.236;10.384;2022-09-29T06:15:21;16.13;;;11.43;;
16800;SDS011;8518;53.236;10.384;2022-09-29T06:17:53;14.33;;;11.33;;
16800;SDS011;8518;53.236;10.384;2022-09-29T06:20:23;12.50;;;11.10;;
16800;SDS011;8518;53.236;10.384;2022-09-29T06:22:49;15.57;;;12.07;;
16800;SDS011;8518;53.236;10.384;2022-09-29T06:25:17;17.03;;;13.50;;
16800;SDS011;8518;53.236;10.384;2022-09-29T06:27:43;15.00;;;11.73;;
16800;SDS011;8518;53.236;10.384;2022-09-29T06:30:09;14.67;;;12.57;;
16800;SDS011;8518;53.236;10.384;2022-09-29T06:32:37;15.03;;;13.23;;
16800;SDS011;8518;53.236;10.384;2022-09-29T06:35:03;16.83;;;13.43;;
16800;SDS011;8518;53.236;10.384;2022-09-29T06:37:47;15.67;;;13.93;;
16800;SDS011;8518;53.236;10.384;2022-09-29T06:40:13;18.37;;;14.50;;
16800;SDS011;8518;53.236;10.384;2022-09-29T06:42:38;17.30;;;13.90;;
16800;SDS011;8518;53.236;10.384;2022-09-29T06:45:04;17.53;;;14.17;;
16800;SDS011;8518;53.236;10.384;2022-09-29T06:47:30;21.67;;;14.93;;
16800;SDS011;8518;53.236;10.384;2022-09-29T06:49:56;26.20;;;15.80;;
16800;SDS011;8518;53.236;10.384;2022-09-29T06:52:25;18.93;;;15.27;;
16800;SDS011;8518;53.236;10.384;2022-09-29T06:54:51;21.40;;;16.57;;
16800;SDS011;8518;53.236;10.384;2022-09-29T06:57:17;23.27;;;17.13;;
16800;SDS011;8518;53.236;10.384;2022-09-29T06:59:43;21.93;;;17.87;;
16800;SDS011;8518;53.236;10.384;2022-09-29T07:02:09;26.07;;;17.93;;
16800;SDS011;8518;53.236;10.384;2022-09-29T07:04:35;35.60;;;19.40;;
16800;SDS011;8518;53.236;10.384;2022-09-29T07:07:01;29.40;;;18.80;;
16800;SDS011;8518;53.236;10.384;2022-09-29T07:09:27;27.47;;;19.10;;
16800;SDS011;8518;53.236;10.384;2022-09-29T07:11:52;25.13;;;18.60;;
16800;SDS011;8518;53.236;10.384;2022-09-29T07:14:19;25.73;;;19.50;;
16800;SDS011;8518;53.236;10.384;2022-09-29T07:16:46;22.63;;;19.80;;
16800;SDS011;8518;53.236;10.384;2022-09-29T07:19:12;21.60;;;18.67;;
16800;SDS011;8518;53.236;10.384;2022-09-29T07:21:39;24.27;;;18.87;;
16800;SDS011;8518;53.236;10.384;2022-09-29T07:24:05;25.53;;;19.67;;
16800;SDS011;8518;53.236;10.384;2022-09-29T07:26:30;22.50;;;18.30;;
16800;SDS011;8518;53.236;10.384;2022-09-29T07:28:56;24.37;;;19.67;;
16800;SDS011;8518;53.236;10.384;2022-09-29T07:31:21;20.33;;;17.93;;
16800;SDS011;8518;53.236;10.384;2022-09-29T07:33:48;25.87;;;18.10;;
16800;SDS011;8518;53.236;10.384;2022-09-29T07:36:15;24.97;;;18.40;;
16800;SDS011;8518;53.236;10.384;2022-09-29T07:38:44;24.53;;;17.43;;
16800;SDS011;8518;53.236;10.384;2022-09-29T07:41:11;19.63;;;17.53;;
16800;SDS011;8518;53.236;10.384;2022-09-29T07:43:37;25.73;;;17.83;;
16800;SDS011;8518;53.236;10.384;2022-09-29T07:46:04;21.43;;;18.57;;
16800;SDS011;8518;53.236;10.384;2022-09-29T07:48:30;20.87;;;18.67;;
16800;SDS011;8518;53.236;10.384;2022-09-29T07:53:29;19.27;;;17.17;;
16800;SDS011;8518;53.236;10.384;2022-09-29T07:56:00;18.77;;;16.20;;
16800;SDS011;8518;53.236;10.384;2022-09-29T07:58:28;18.83;;;16.60;;
16800;SDS011;8518;53.236;10.384;2022-09-29T08:00:56;17.13;;;15.37;;
16800;SDS011;8518;53.236;10.384;2022-09-29T08:03:22;16.77;;;15.07;;
16800;SDS011;8518;53.236;10.384;2022-09-29T08:05:50;16.07;;;14.40;;
16800;SDS011;8518;53.236;10.384;2022-09-29T08:08:17;15.53;;;13.93;;
16800;SDS011;8518;53.236;10.384;2022-09-29T08:10:42;14.63;;;13.13;;
16800;SDS011;8518;53.236;10.384;2022-09-29T08:13:09;13.60;;;12.30;;
16800;SDS011;8518;53.236;10.384;2022-09-29T08:15:34;13.63;;;12.33;;
16800;SDS011;8518;53.236;10.384;2022-09-29T08:18:00;12.00;;;10.87;;
16800;SDS011;8518;53.236;10.384;2022-09-29T08:20:25;11.77;;;10.63;;
16800;SDS011;8518;53.236;10.384;2022-09-29T08:22:51;11.17;;;10.17;;
16800;SDS011;8518;53.236;10.384;2022-09-29T08:25:20;10.27;;;9.37;;
16800;SDS011;8518;53.236;10.384;2022-09-29T08:27:47;10.40;;;9.50;;
16800;SDS011;8518;53.236;10.384;2022-09-29T08:30:13;10.60;;;9.60;;
16800;SDS011;8518;53.236;10.384;2022-09-29T08:32:39;9.27;;;8.47;;
16800;SDS011;8518;53.236;10.384;2022-09-29T08:35:05;10.13;;;9.13;;
16800;SDS011;8518;53.236;10.384;2022-09-29T08:37:31;9.50;;;8.60;;
16800;SDS011;8518;53.236;10.384;2022-09-29T08:39:57;8.40;;;7.70;;
16800;SDS011;8518;53.236;10.384;2022-09-29T08:45:13;9.40;;;8.50;;
16800;SDS011;8518;53.236;10.384;2022-09-29T08:47:56;9.43;;;8.53;;
16800;SDS011;8518;53.236;10.384;2022-09-29T08:50:42;9.13;;;8.23;;
16800;SDS011;8518;53.236;10.384;2022-09-29T08:53:13;9.50;;;8.60;;
16800;SDS011;8518;53.236;10.384;2022-09-29T08:55:44;8.90;;;8.10;;
16800;SDS011;8518;53.236;10.384;2022-09-29T08:58:12;8.43;;;7.72;;
16800;SDS011;8518;53.236;10.384;2022-09-29T09:03:24;7.32;;;6.72;;
16800;SDS011;8518;53.236;10.384;2022-09-29T09:06:20;8.45;;;7.68;;
16800;SDS011;8518;53.236;10.384;2022-09-29T09:11:40;7.40;;;6.70;;
16800;SDS011;8518;53.236;10.384;2022-09-29T09:25:48;7.40;;;6.80;;
16800;SDS011;8518;53.236;10.384;2022-09-29T09:28:17;8.80;;;8.10;;
16800;SDS011;8518;53.236;10.384;2022-09-29T09:30:53;7.70;;;7.10;;
16800;SDS011;8518;53.236;10.384;2022-09-29T09:36:18;8.40;;;7.70;;
16800;SDS011;8518;53.236;10.384;2022-09-29T09:38:53;8.23;;;7.57;;
16800;SDS011;8518;53.236;10.384;2022-09-29T09:41:25;8.68;;;7.88;;
16800;SDS011;8518;53.236;10.384;2022-09-29T09:43:57;8.68;;;7.95;;
16800;SDS011;8518;53.236;10.384;2022-09-29T09:46:35;9.10;;;8.30;;
16800;SDS011;8518;53.236;10.384;2022-09-29T09:51:58;8.98;;;8.18;;
16800;SDS011;8518;53.236;10.384;2022-09-29T09:54:37;9.90;;;9.00;;
16800;SDS011;8518;53.236;10.384;2022-09-29T10:02:53;8.15;;;7.35;;
16800;SDS011;8518;53.236;10.384;2022-09-29T10:05:22;7.93;;;7.22;;
16800;SDS011;8518;53.236;10.384;2022-09-29T10:07:50;8.10;;;7.30;;
16800;SDS011;8518;53.236;10.384;2022-09-29T10:10:24;7.35;;;6.75;;
16800;SDS011;8518;53.236;10.384;2022-09-29T10:15:21;6.95;;;6.35;;
16800;SDS011;8518;53.236;10.384;2022-09-29T10:17:58;6.97;;;6.28;;
16800;SDS011;8518;53.236;10.384;2022-09-29T10:20:32;7.78;;;7.07;;
16800;SDS011;8518;53.236;10.384;2022-09-29T10:28:52;7.70;;;7.03;;
16800;SDS011;8518;53.236;10.384;2022-09-29T10:31:32;7.63;;;7.03;;
16800;SDS011;8518;53.236;10.384;2022-09-29T10:34:00;8.15;;;7.45;;
16800;SDS011;8518;53.236;10.384;2022-09-29T10:37:19;8.27;;;7.57;;
16800;SDS011;8518;53.236;10.384;2022-09-29T10:42:22;8.30;;;7.50;;
16800;SDS011;8518;53.236;10.384;2022-09-29T10:52:57;8.75;;;7.95;;
16800;SDS011;8518;53.236;10.384;2022-09-29T10:55:35;9.50;;;8.70;;
16800;SDS011;8518;53.236;10.384;2022-09-29T10:58:32;9.33;;;8.43;;
16800;SDS011;8518;53.236;10.384;2022-09-29T11:01:04;8.23;;;7.43;;
16800;SDS011;8518;53.236;10.384;2022-09-29T11:03:45;9.00;;;8.18;;
16800;SDS011;8518;53.236;10.384;2022-09-29T11:06:28;9.30;;;8.40;;
16800;SDS011;8518;53.236;10.384;2022-09-29T11:09:03;9.65;;;8.63;;
16800;SDS011;8518;53.236;10.384;2022-09-29T11:11:54;8.87;;;7.93;;
16800;SDS011;8518;53.236;10.384;2022-09-29T11:14:41;9.27;;;8.17;;
16800;SDS011;8518;53.236;10.384;2022-09-29T11:17:23;8.65;;;7.85;;
16800;SDS011;8518;53.236;10.384;2022-09-29T11:19:54;8.38;;;7.47;;
16800;SDS011;8518;53.236;10.384;2022-09-29T11:30:26;8.38;;;7.57;;
16800;SDS011;8518;53.236;10.384;2022-09-29T11:36:11;9.50;;;8.50;;
16800;SDS011;8518;53.236;10.384;2022-09-29T11:47:11;8.95;;;8.15;;
16800;SDS011;8518;53.236;10.384;2022-09-29T11:50:02;7.95;;;7.15;;
16800;SDS011;8518;53.236;10.384;2022-09-29T11:52:47;8.25;;;7.55;;
16800;SDS011;8518;53.236;10.384;2022-09-29T12:00:34;7.55;;;6.85;;
16800;SDS011;8518;53.236;10.384;2022-09-29T12:03:30;7.20;;;6.50;;
16800;SDS011;8518;53.236;10.384;2022-09-29T12:06:09;6.68;;;6.07;;
16800;SDS011;8518;53.236;10.384;2022-09-29T12:09:01;7.93;;;7.13;;
16800;SDS011;8518;53.236;10.384;2022-09-29T12:11:46;7.55;;;6.85;;
16800;SDS011;8518;53.236;10.384;2022-09-29T12:14:25;7.43;;;6.72;;
16800;SDS011;8518;53.236;10.384;2022-09-29T12:17:19;8.93;;;7.18;;
16800;SDS011;8518;53.236;10.384;2022-09-29T12:19:47;6.88;;;6.22;;
16800;SDS011;8518;53.236;10.384;2022-09-29T12:22:20;7.95;;;6.63;;
16800;SDS011;8518;53.236;10.384;2022-09-29T12:24:46;6.72;;;6.13;;
16800;SDS011;8518;53.236;10.384;2022-09-29T12:27:20;5.97;;;5.45;;
16800;SDS011;8518;53.236;10.384;2022-09-29T12:32:26;5.25;;;4.75;;
16800;SDS011;8518;53.236;10.384;2022-09-29T12:35:16;4.90;;;4.45;;
16800;SDS011;8518;53.236;10.384;2022-09-29T12:43:40;5.50;;;5.00;;
16800;SDS011;8518;53.236;10.384;2022-09-29T12:49:03;5.25;;;4.75;;
16800;SDS011;8518;53.236;10.384;2022-09-29T12:57:02;4.60;;;4.20;;
16800;SDS011;8518;53.236;10.384;2022-09-29T12:59:32;4.40;;;4.00;;
16800;SDS011;8518;53.236;10.384;2022-09-29T13:02:24;4.55;;;4.15;;
16800;SDS011;8518;53.236;10.384;2022-09-29T13:08:03;5.50;;;5.00;;
16800;SDS011;8518;53.236;10.384;2022-09-29T13:13:48;6.67;;;4.17;;
16800;SDS011;8518;53.236;10.384;2022-09-29T13:16:46;4.53;;;4.13;;
16800;SDS011;8518;53.236;10.384;2022-09-29T13:28:28;4.00;;;3.60;;
16800;SDS011;8518;53.236;10.384;2022-09-29T13:31:08;4.20;;;3.73;;
16800;SDS011;8518;53.236;10.384;2022-09-29T13:33:38;4.40;;;4.00;;
16800;SDS011;8518;53.236;10.384;2022-09-29T13:36:05;4.53;;;4.10;;
16800;SDS011;8518;53.236;10.384;2022-09-29T13:38:33;4.13;;;3.73;;
16800;SDS011;8518;53.236;10.384;2022-09-29T13:59:36;5.17;;;2.47;;
16800;SDS011;8518;53.236;10.384;2022-09-29T14:05:51;2.53;;;1.93;;
16800;SDS011;8518;53.236;10.384;2022-09-29T14:10:23;3.13;;;2.40;;
16800;SDS011;8518;53.236;10.384;2022-09-29T14:13:00;2.67;;;2.00;;
16800;SDS011;8518;53.236;10.384;2022-09-29T14:15:42;2.13;;;1.93;;
16800;SDS011;8518;53.236;10.384;2022-09-29T14:18:14;2.57;;;2.37;;
16800;SDS011;8518;53.236;10.384;2022-09-29T14:20:58;3.13;;;2.50;;
16800;SDS011;8518;53.236;10.384;2022-09-29T14:29:28;4.20;;;2.40;;
16800;SDS011;8518;53.236;10.384;2022-09-29T14:31:57;3.03;;;2.47;;
16800;SDS011;8518;53.236;10.384;2022-09-29T14:34:27;3.00;;;2.70;;
16800;SDS011;8518;53.236;10.384;2022-09-29T14:36:56;3.03;;;2.57;;
16800;SDS011;8518;53.236;10.384;2022-09-29T14:39:24;3.53;;;2.30;;
16800;SDS011;8518;53.236;10.384;2022-09-29T14:41:51;3.90;;;3.22;;
16800;SDS011;8518;53.236;10.384;2022-09-29T14:44:24;5.17;;;4.20;;
16800;SDS011;8518;53.236;10.384;2022-09-29T14:50:30;10.03;;;8.50;;
16800;SDS011;8518;53.236;10.384;2022-09-29T14:59:06;2.80;;;2.60;;
16800;SDS011;8518;53.236;10.384;2022-09-29T15:01:53;3.87;;;2.67;;
16800;SDS011;8518;53.236;10.384;2022-09-29T15:04:22;3.47;;;2.60;;
16800;SDS011;8518;53.236;10.384;2022-09-29T15:06:49;3.50;;;2.90;;
16800;SDS011;8518;53.236;10.384;2022-09-29T15:09:23;3.57;;;3.27;;
16800;SDS011;8518;53.236;10.384;2022-09-29T15:11:50;3.60;;;3.30;;
16800;SDS011;8518;53.236;10.384;2022-09-29T15:14:32;3.50;;;3.13;;
16800;SDS011;8518;53.236;10.384;2022-09-29T15:25:08;2.93;;;2.63;;
16800;SDS011;8518;53.236;10.384;2022-09-29T15:27:46;1.87;;;1.73;;
16800;SDS011;8518;53.236;10.384;2022-09-29T15:30:16;1.53;;;1.40;;
16800;SDS011;8518;53.236;10.384;2022-09-29T15:32:44;1.80;;;1.70;;
16800;SDS011;8518;53.236;10.384;2022-09-29T15:35:13;2.57;;;1.77;;
16800;SDS011;8518;53.236;10.384;2022-09-29T15:40:22;1.87;;;1.63;;
16800;SDS011;8518;53.236;10.384;2022-09-29T15:42:50;2.10;;;1.67;;
16800;SDS011;8518;53.236;10.384;2022-09-29T15:47:48;3.37;;;2.10;;
16800;SDS011;8518;53.236;10.384;2022-09-29T15:50:25;2.97;;;2.23;;
16800;SDS011;8518;53.236;10.384;2022-09-29T15:52:55;2.73;;;1.70;;
16800;SDS011;8518;53.236;10.384;2022-09-29T15:55:25;1.97;;;1.80;;
16800;SDS011;8518;53.236;10.384;2022-09-29T15:57:50;2.00;;;1.80;;
16800;SDS011;8518;53.236;10.384;2022-09-29T16:05:17;2.80;;;2.43;;
16800;SDS011;8518;53.236;10.384;2022-09-29T16:07:47;3.10;;;2.80;;
16800;SDS011;8518;53.236;10.384;2022-09-29T16:10:21;2.87;;;2.57;;
16800;SDS011;8518;53.236;10.384;2022-09-29T16:12:55;2.30;;;2.10;;
16800;SDS011;8518;53.236;10.384;2022-09-29T16:15:30;2.63;;;2.10;;
16800;SDS011;8518;53.236;10.384;2022-09-29T16:18:00;2.00;;;1.90;;
16800;SDS011;8518;53.236;10.384;2022-09-29T16:20:30;2.80;;;1.93;;
16800;SDS011;8518;53.236;10.384;2022-09-29T16:23:07;2.00;;;1.87;;
16800;SDS011;8518;53.236;10.384;2022-09-29T16:31:35;2.50;;;2.30;;
16800;SDS011;8518;53.236;10.384;2022-09-29T16:36:50;2.67;;;2.17;;
16800;SDS011;8518;53.236;10.384;2022-09-29T16:39:28;4.07;;;3.03;;
16800;SDS011;8518;53.236;10.384;2022-09-29T16:42:03;3.37;;;3.07;;
16800;SDS011;8518;53.236;10.384;2022-09-29T16:44:34;4.13;;;2.73;;
16800;SDS011;8518;53.236;10.384;2022-09-29T16:49:44;2.87;;;2.40;;
16800;SDS011;8518;53.236;10.384;2022-09-29T16:54:51;2.90;;;2.70;;
16800;SDS011;8518;53.236;10.384;2022-09-29T17:00:27;3.47;;;3.10;;
16800;SDS011;8518;53.236;10.384;2022-09-29T17:02:49;3.37;;;3.07;;
16800;SDS011;8518;53.236;10.384;2022-09-29T17:05:16;3.80;;;3.37;;
16800;SDS011;8518;53.236;10.384;2022-09-29T17:07:42;3.63;;;2.97;;
16800;SDS011;8518;53.236;10.384;2022-09-29T17:10:18;4.13;;;3.30;;
16800;SDS011;8518;53.236;10.384;2022-09-29T17:12:45;3.37;;;2.83;;
16800;SDS011;8518;53.236;10.384;2022-09-29T17:15:14;3.90;;;2.47;;
16800;SDS011;8518;53.236;10.384;2022-09-29T17:17:41;6.27;;;3.87;;
16800;SDS011;8518;53.236;10.384;2022-09-29T17:20:13;4.83;;;3.67;;
16800;SDS011;8518;53.236;10.384;2022-09-29T17:22:42;6.37;;;4.37;;
16800;SDS011;8518;53.236;10.384;2022-09-29T17:25:09;5.20;;;3.53;;
16800;SDS011;8518;53.236;10.384;2022-09-29T17:27:35;5.53;;;3.93;;
16800;SDS011;8518;53.236;10.384;2022-09-29T17:30:21;4.10;;;3.67;;
16800;SDS011;8518;53.236;10.384;2022-09-29T17:32:48;3.57;;;3.07;;
16800;SDS011;8518;53.236;10.384;2022-09-29T17:35:17;4.30;;;3.23;;
16800;SDS011;8518;53.236;10.384;2022-09-29T17:37:45;4.93;;;3.80;;
16800;SDS011;8518;53.236;10.384;2022-09-29T17:40:33;4.03;;;3.17;;
16800;SDS011;8518;53.236;10.384;2022-09-29T17:43:16;3.70;;;3.40;;
16800;SDS011;8518;53.236;10.384;2022-09-29T17:45:42;4.17;;;3.77;;
16800;SDS011;8518;53.236;10.384;2022-09-29T17:48:08;4.67;;;3.10;;
16800;SDS011;8518;53.236;10.384;2022-09-29T17:50:55;2.93;;;2.70;;
16800;SDS011;8518;53.236;10.384;2022-09-29T17:53:23;3.53;;;3.23;;
16800;SDS011;8518;53.236;10.384;2022-09-29T17:55:49;4.20;;;3.47;;
16800;SDS011;8518;53.236;10.384;2022-09-29T17:58:18;3.73;;;3.33;;
16800;SDS011;8518;53.236;10.384;2022-09-29T18:00:46;5.50;;;3.80;;
16800;SDS011;8518;53.236;10.384;2022-09-29T18:03:13;4.73;;;3.73;;
16800;SDS011;8518;53.236;10.384;2022-09-29T18:05:42;3.83;;;3.30;;
16800;SDS011;8518;53.236;10.384;2022-09-29T18:08:17;4.80;;;3.77;;
16800;SDS011;8518;53.236;10.384;2022-09-29T18:10:46;4.03;;;3.53;;
16800;SDS011;8518;53.236;10.384;2022-09-29T18:13:16;4.50;;;3.10;;
16800;SDS011;8518;53.236;10.384;2022-09-29T18:15:42;3.00;;;2.70;;
16800;SDS011;8518;53.236;10.384;2022-09-29T18:18:14;3.10;;;2.67;;
16800;SDS011;8518;53.236;10.384;2022-09-29T18:20:42;3.93;;;2.90;;
16800;SDS011;8518;53.236;10.384;2022-09-29T18:23:12;6.33;;;4.37;;
16800;SDS011;8518;53.236;10.384;2022-09-29T18:25:39;6.20;;;4.20;;
16800;SDS011;8518;53.236;10.384;2022-09-29T18:28:07;5.33;;;3.73;;
16800;SDS011;8518;53.236;10.384;2022-09-29T18:30:35;3.47;;;3.00;;
16800;SDS011;8518;53.236;10.384;2022-09-29T18:33:03;3.60;;;2.93;;
16800;SDS011;8518;53.236;10.384;2022-09-29T18:35:31;4.30;;;2.80;;
16800;SDS011;8518;53.236;10.384;2022-09-29T18:37:58;3.17;;;2.80;;
16800;SDS011;8518;53.236;10.384;2022-09-29T18:40:25;3.47;;;2.97;;
16800;SDS011;8518;53.236;10.384;2022-09-29T18:42:52;3.70;;;3.33;;
16800;SDS011;8518;53.236;10.384;2022-09-29T18:45:22;3.90;;;3.27;;
16800;SDS011;8518;53.236;10.384;2022-09-29T18:47:52;3.50;;;2.97;;